Terminal Aerodrome Forecast
Issued by NWS

Home | Current Version | Previous Version | Text Only | Print | Product List | Glossary On
Versions: 1 2 3 4 5 6 7 8 9 10 11 12 13 14 15
000
FTUS46 KSTO 271700
TAFMHR
TAF
KMHR 271735Z 2718/2818 VRB04KT P6SM BKN200
      TEMPO 2813/2817 4SM BR=

USA.gov is the U.S. government's official web portal to all federal, state and local government web resources and services.